createdAt,value
2019-03-26T00:00:33.238Z,3.65
2019-03-26T00:03:21.868Z,3.17
2019-03-26T00:06:10.492Z,3.62
2019-03-26T00:08:58.766Z,3.40
2019-03-26T00:11:47.569Z,6.72
2019-03-26T00:14:36.389Z,4.05
2019-03-26T00:17:25.599Z,4.90
2019-03-26T00:20:14.446Z,3.65
2019-03-26T00:23:03.442Z,3.30
2019-03-26T00:25:52.062Z,4.40
2019-03-26T00:28:40.676Z,6.20
2019-03-26T00:31:29.334Z,5.95
2019-03-26T00:34:19.796Z,6.10
2019-03-26T00:37:08.951Z,4.58
2019-03-26T00:39:57.566Z,5.42
2019-03-26T00:42:47.021Z,3.58
2019-03-26T00:45:35.491Z,5.80
2019-03-26T00:48:24.170Z,5.65
2019-03-26T00:51:12.280Z,7.40
2019-03-26T00:54:00.876Z,4.08
2019-03-26T00:56:49.020Z,5.92
2019-03-26T00:59:37.365Z,9.13
2019-03-26T01:02:25.836Z,4.17
2019-03-26T01:05:14.007Z,4.87
2019-03-26T01:08:02.270Z,7.55
2019-03-26T01:10:50.322Z,4.83
2019-03-26T01:13:38.671Z,6.37
2019-03-26T01:16:26.834Z,7.05
2019-03-26T01:19:14.759Z,4.72
2019-03-26T01:22:02.757Z,4.97
2019-03-26T01:24:50.581Z,5.55
2019-03-26T01:27:39.130Z,7.50
2019-03-26T01:30:27.156Z,8.18
2019-03-26T01:33:15.295Z,7.05
2019-03-26T01:36:03.121Z,9.00
2019-03-26T01:38:51.310Z,7.87
2019-03-26T01:41:39.030Z,6.95
2019-03-26T01:44:26.695Z,6.95
2019-03-26T01:47:14.723Z,4.25
2019-03-26T01:50:02.598Z,9.98
2019-03-26T01:52:50.938Z,5.25
2019-03-26T01:55:39.966Z,6.55
2019-03-26T01:58:28.851Z,6.17
2019-03-26T02:01:18.227Z,7.97
2019-03-26T02:04:08.013Z,6.95
2019-03-26T02:06:57.208Z,6.03
2019-03-26T02:09:46.203Z,12.00
2019-03-26T02:12:37.231Z,9.90
2019-03-26T02:15:30.994Z,7.60
2019-03-26T02:18:20.103Z,8.58
2019-03-26T02:21:15.695Z,8.83
2019-03-26T02:24:04.927Z,8.05
2019-03-26T02:26:53.690Z,11.35
2019-03-26T02:29:42.394Z,10.95
2019-03-26T02:32:32.126Z,11.30
2019-03-26T02:35:20.791Z,9.43
2019-03-26T02:38:09.435Z,14.70
2019-03-26T02:40:57.866Z,31.27
2019-03-26T02:43:47.079Z,9.98
2019-03-26T02:46:35.386Z,6.90
2019-03-26T02:49:24.896Z,10.53
2019-03-26T02:52:12.839Z,11.18
2019-03-26T02:55:01.664Z,12.23
2019-03-26T02:57:50.493Z,9.83
2019-03-26T03:00:44.139Z,10.10
2019-03-26T03:03:33.023Z,9.95
2019-03-26T03:06:21.520Z,15.00
2019-03-26T03:09:13.923Z,10.35
2019-03-26T03:12:02.678Z,13.40
2019-03-26T03:14:51.049Z,9.40
2019-03-26T03:17:39.971Z,11.50
2019-03-26T03:20:29.068Z,11.75
2019-03-26T03:23:17.121Z,6.92
2019-03-26T03:26:04.984Z,7.58
2019-03-26T03:28:53.040Z,11.50
2019-03-26T03:31:41.050Z,10.65
2019-03-26T03:34:29.063Z,9.90
2019-03-26T03:37:17.270Z,13.40
2019-03-26T03:40:05.479Z,9.45
2019-03-26T03:42:53.377Z,7.35
2019-03-26T03:45:41.122Z,8.30
2019-03-26T03:48:28.926Z,6.15
2019-03-26T03:51:18.396Z,8.00
2019-03-26T03:54:07.202Z,6.05
2019-03-26T03:56:56.927Z,7.35
2019-03-26T03:59:45.311Z,6.50
2019-03-26T04:02:33.490Z,7.47
2019-03-26T04:05:21.612Z,10.58
2019-03-26T04:08:10.369Z,7.20
2019-03-26T04:10:59.419Z,8.55
2019-03-26T04:13:47.962Z,6.50
2019-03-26T04:16:37.533Z,6.78
2019-03-26T04:19:29.763Z,7.75
2019-03-26T04:22:18.981Z,8.58
2019-03-26T04:25:07.684Z,6.47
2019-03-26T04:27:55.934Z,6.33
2019-03-26T04:30:45.404Z,7.00
2019-03-26T04:33:34.265Z,6.62
2019-03-26T04:36:25.871Z,8.60
2019-03-26T04:39:13.091Z,8.78
2019-03-26T04:42:01.123Z,7.45
2019-03-26T04:44:50.010Z,7.65
2019-03-26T04:47:38.366Z,6.03
2019-03-26T04:50:27.266Z,7.12
2019-03-26T04:53:15.935Z,6.85
2019-03-26T04:56:04.907Z,5.80
2019-03-26T04:58:53.469Z,11.45
2019-03-26T05:01:42.006Z,6.67
2019-03-26T05:04:31.159Z,7.72
2019-03-26T05:07:19.902Z,9.45
2019-03-26T05:10:08.824Z,7.55
2019-03-26T05:12:57.695Z,6.80
2019-03-26T05:15:46.638Z,6.10
2019-03-26T05:18:35.309Z,8.55
2019-03-26T05:21:24.467Z,7.17
2019-03-26T05:24:13.626Z,7.85
2019-03-26T05:27:02.574Z,7.85
2019-03-26T05:29:51.833Z,7.42
2019-03-26T05:32:41.434Z,9.00
2019-03-26T05:35:30.926Z,5.72
2019-03-26T05:38:19.502Z,11.05
2019-03-26T05:41:10.503Z,8.10
2019-03-26T05:43:59.075Z,8.20
2019-03-26T05:46:48.212Z,9.38
2019-03-26T05:49:36.911Z,9.85
2019-03-26T05:52:25.311Z,9.08
2019-03-26T05:55:14.238Z,8.28
2019-03-26T05:58:02.999Z,10.35
2019-03-26T06:00:51.706Z,9.13
2019-03-26T06:03:41.198Z,10.38
2019-03-26T06:06:29.859Z,14.15
2019-03-26T06:09:18.972Z,11.68
2019-03-26T06:12:07.396Z,8.95
2019-03-26T06:14:55.922Z,9.13
2019-03-26T06:17:45.214Z,7.20
2019-03-26T06:20:33.702Z,9.03
2019-03-26T06:23:22.166Z,7.90
2019-03-26T06:26:10.492Z,14.47
2019-03-26T06:29:01.113Z,9.23
2019-03-26T06:31:49.495Z,14.47
2019-03-26T06:34:38.632Z,9.10
2019-03-26T06:37:27.554Z,10.30
2019-03-26T06:40:16.563Z,8.33
2019-03-26T06:43:05.612Z,18.33
2019-03-26T06:45:55.087Z,11.40
2019-03-26T06:48:43.818Z,11.37
2019-03-26T06:51:33.125Z,9.80
2019-03-26T06:54:22.299Z,9.00
2019-03-26T06:57:10.994Z,9.23
2019-03-26T06:59:59.813Z,11.53
2019-03-26T07:02:48.719Z,12.07
2019-03-26T07:05:37.635Z,7.73
2019-03-26T07:08:25.943Z,10.07
2019-03-26T07:11:14.666Z,11.67
2019-03-26T07:16:59.875Z,11.57
2019-03-26T07:19:48.465Z,12.07
2019-03-26T07:22:36.133Z,16.80
2019-03-26T07:25:24.919Z,9.10
2019-03-26T07:28:13.534Z,11.30
2019-03-26T07:31:02.698Z,10.90
2019-03-26T07:33:51.823Z,11.10
2019-03-26T07:36:42.170Z,10.07
2019-03-26T07:39:31.185Z,9.43
2019-03-26T07:42:19.574Z,9.60
2019-03-26T07:45:08.922Z,10.27
2019-03-26T07:47:57.770Z,13.23
2019-03-26T07:50:47.152Z,10.60
2019-03-26T07:53:36.066Z,11.80
2019-03-26T07:56:25.148Z,7.97
2019-03-26T07:59:14.666Z,13.27
2019-03-26T08:02:03.538Z,9.50
2019-03-26T08:04:52.072Z,12.80
2019-03-26T08:07:40.790Z,8.60
2019-03-26T08:10:29.700Z,9.30
2019-03-26T08:13:24.574Z,8.43
2019-03-26T08:16:13.726Z,8.57
2019-03-26T08:19:02.244Z,10.03
2019-03-26T08:21:50.666Z,10.90
2019-03-26T08:24:38.694Z,9.70
2019-03-26T08:27:27.853Z,9.80
2019-03-26T08:30:17.415Z,11.20
2019-03-26T08:33:08.363Z,9.10
2019-03-26T08:35:59.184Z,8.60
2019-03-26T08:38:48.106Z,7.83
2019-03-26T08:41:36.704Z,7.10
2019-03-26T08:44:25.799Z,8.17
2019-03-26T08:47:14.562Z,6.53
2019-03-26T08:50:03.328Z,6.73
2019-03-26T08:52:52.312Z,8.33
2019-03-26T08:55:41.138Z,12.33
2019-03-26T08:58:30.202Z,7.90
2019-03-26T09:01:18.516Z,10.03
2019-03-26T09:04:07.481Z,7.43
2019-03-26T09:06:55.929Z,10.00
2019-03-26T09:09:44.386Z,8.40
2019-03-26T09:12:32.898Z,6.93
2019-03-26T09:15:21.844Z,7.13
2019-03-26T09:18:10.846Z,8.40
2019-03-26T09:20:59.387Z,6.70
2019-03-26T09:23:47.891Z,5.93
2019-03-26T09:26:37.019Z,3.80
2019-03-26T09:29:26.674Z,4.63
2019-03-26T09:32:15.183Z,5.47
2019-03-26T09:35:04.412Z,6.10
2019-03-26T09:37:53.292Z,5.67
2019-03-26T09:40:42.291Z,4.90
2019-03-26T09:43:31.462Z,11.83
2019-03-26T09:46:20.019Z,5.53
2019-03-26T09:49:08.870Z,6.33
2019-03-26T09:51:57.803Z,5.37
2019-03-26T09:54:46.674Z,4.57
2019-03-26T09:57:36.122Z,4.67
2019-03-26T10:00:25.017Z,4.87
2019-03-26T10:03:14.126Z,4.60
2019-03-26T10:06:02.990Z,3.60
2019-03-26T10:08:52.989Z,4.80
2019-03-26T10:11:41.502Z,5.13
2019-03-26T10:14:29.778Z,5.80
2019-03-26T10:17:17.917Z,4.00
2019-03-26T10:20:07.399Z,4.30
2019-03-26T10:22:55.595Z,3.03
2019-03-26T10:25:44.367Z,4.67
2019-03-26T10:28:34.203Z,3.83
2019-03-26T10:31:22.950Z,4.33
2019-03-26T10:34:11.771Z,6.43
2019-03-26T10:37:02.143Z,4.67
2019-03-26T10:39:50.824Z,4.57
2019-03-26T10:42:39.399Z,5.20
2019-03-26T10:45:28.382Z,5.60
2019-03-26T10:48:17.766Z,4.30
2019-03-26T10:51:07.030Z,4.03
2019-03-26T10:53:55.946Z,4.90
2019-03-26T10:56:44.673Z,4.77
2019-03-26T10:59:33.571Z,4.70
2019-03-26T11:02:22.430Z,5.43
2019-03-26T11:05:11.344Z,7.70
2019-03-26T11:07:59.870Z,4.20
2019-03-26T11:10:49.361Z,4.33
2019-03-26T11:13:38.558Z,4.63
2019-03-26T11:16:26.866Z,5.53
2019-03-26T11:19:15.619Z,6.13
2019-03-26T11:22:04.242Z,3.67
2019-03-26T11:24:53.056Z,5.20
2019-03-26T11:27:41.727Z,4.50
2019-03-26T11:30:30.424Z,5.37
2019-03-26T11:33:19.521Z,6.67
2019-03-26T11:36:08.002Z,5.00
2019-03-26T11:38:57.057Z,5.40
2019-03-26T11:41:45.247Z,5.83
2019-03-26T11:44:34.154Z,5.53
2019-03-26T11:47:22.738Z,4.63
2019-03-26T11:50:12.670Z,5.07
2019-03-26T11:53:06.868Z,3.87
2019-03-26T11:55:55.535Z,5.90
2019-03-26T11:58:44.815Z,5.23
2019-03-26T12:01:34.191Z,4.10
2019-03-26T12:04:22.854Z,2.90
2019-03-26T12:07:10.742Z,3.27
2019-03-26T12:09:59.317Z,4.80
2019-03-26T12:12:48.603Z,4.17
2019-03-26T12:15:37.778Z,5.03
2019-03-26T12:18:26.633Z,3.50
2019-03-26T12:21:15.419Z,4.10
2019-03-26T12:24:03.726Z,6.70
2019-03-26T12:26:52.508Z,6.80
2019-03-26T12:29:42.056Z,3.60
2019-03-26T12:32:31.026Z,8.87
2019-03-26T12:35:29.444Z,5.87
2019-03-26T12:38:18.169Z,4.07
2019-03-26T12:41:07.107Z,3.10
2019-03-26T12:43:56.326Z,3.53
2019-03-26T12:46:50.822Z,2.73
2019-03-26T12:49:39.904Z,4.37
2019-03-26T12:52:28.762Z,3.60
2019-03-26T12:55:17.470Z,4.00
2019-03-26T12:58:06.448Z,2.57
2019-03-26T13:00:55.202Z,3.60
2019-03-26T13:03:43.770Z,4.03
2019-03-26T13:06:32.297Z,5.10
2019-03-26T13:09:21.224Z,6.50
2019-03-26T13:12:10.075Z,3.63
2019-03-26T13:15:02.795Z,5.03
2019-03-26T13:17:51.807Z,4.07
2019-03-26T13:20:40.555Z,3.47
2019-03-26T13:23:29.811Z,2.87
2019-03-26T13:26:18.406Z,10.03
2019-03-26T13:29:07.460Z,4.73
2019-03-26T13:31:56.042Z,3.53
2019-03-26T13:34:44.740Z,4.50
2019-03-26T13:37:34.478Z,3.37
2019-03-26T13:40:27.401Z,4.30
2019-03-26T13:43:13.427Z,4.70
2019-03-26T13:46:02.103Z,3.77
2019-03-26T13:48:50.366Z,3.20
2019-03-26T13:51:39.415Z,3.83
2019-03-26T13:54:29.583Z,5.47
2019-03-26T13:57:18.569Z,3.77
2019-03-26T14:03:13.883Z,3.13
2019-03-26T14:06:02.781Z,5.87
2019-03-26T14:08:51.862Z,4.13
2019-03-26T14:11:40.887Z,4.90
2019-03-26T14:14:29.659Z,3.40
2019-03-26T14:17:18.545Z,5.13
2019-03-26T14:20:08.170Z,14.30
2019-03-26T14:22:56.311Z,4.77
2019-03-26T14:25:48.902Z,2.87
2019-03-26T14:28:42.176Z,5.90
2019-03-26T14:31:31.605Z,5.87
2019-03-26T14:34:20.554Z,4.87
2019-03-26T14:37:09.954Z,4.43
2019-03-26T14:39:58.685Z,2.63
2019-03-26T14:42:47.588Z,5.07
2019-03-26T14:45:36.436Z,3.07
2019-03-26T14:48:25.722Z,3.00
2019-03-26T14:51:14.968Z,5.37
2019-03-26T14:54:03.914Z,5.23
2019-03-26T14:56:52.804Z,5.53
2019-03-26T14:59:41.731Z,6.63
2019-03-26T15:02:30.384Z,7.67
2019-03-26T15:05:19.258Z,5.80
2019-03-26T15:08:07.959Z,5.53
2019-03-26T15:11:07.535Z,13.67
2019-03-26T15:13:49.639Z,3.73
2019-03-26T15:16:39.162Z,6.10
2019-03-26T15:19:31.248Z,4.13
2019-03-26T15:22:19.845Z,5.67
2019-03-26T15:25:09.622Z,4.03
2019-03-26T15:27:58.747Z,4.67
2019-03-26T15:30:47.730Z,3.87
2019-03-26T15:33:36.665Z,5.43
2019-03-26T15:36:26.318Z,6.30
2019-03-26T15:39:14.863Z,5.17
2019-03-26T15:42:03.557Z,6.67
2019-03-26T15:44:52.255Z,5.00
2019-03-26T15:47:40.980Z,6.70
2019-03-26T15:50:36.828Z,4.30
2019-03-26T15:53:24.422Z,4.97
2019-03-26T15:56:12.519Z,8.90
2019-03-26T15:59:00.290Z,7.10
2019-03-26T16:01:48.570Z,6.10
2019-03-26T16:04:36.682Z,5.20
2019-03-26T16:07:24.769Z,7.63
2019-03-26T16:10:14.134Z,8.10
2019-03-26T16:13:02.001Z,5.70
2019-03-26T16:15:51.860Z,6.60
2019-03-26T16:18:39.634Z,11.60
2019-03-26T16:21:34.396Z,8.00
2019-03-26T16:24:22.246Z,6.90
2019-03-26T16:27:10.514Z,8.27
2019-03-26T16:29:58.622Z,5.13
2019-03-26T16:32:46.858Z,4.83
2019-03-26T16:35:36.541Z,7.37
2019-03-26T16:38:25.666Z,7.50
2019-03-26T16:41:14.214Z,6.33
2019-03-26T16:44:02.706Z,8.60
2019-03-26T16:46:51.894Z,7.47
2019-03-26T16:49:41.810Z,9.57
2019-03-26T16:52:31.264Z,10.00
2019-03-26T16:56:00.220Z,11.97
2019-03-26T16:58:43.049Z,9.60
2019-03-26T17:04:46.726Z,9.47
2019-03-26T17:07:33.474Z,10.53
2019-03-26T17:14:06.521Z,9.27
2019-03-26T17:17:36.712Z,7.33
2019-03-26T17:20:49.321Z,7.70
2019-03-26T17:24:08.313Z,5.37
2019-03-26T17:26:57.465Z,9.37
2019-03-26T17:29:45.192Z,11.87
2019-03-26T17:32:33.338Z,9.37
2019-03-26T17:35:21.747Z,6.00
2019-03-26T17:38:09.433Z,6.53
2019-03-26T17:40:57.786Z,11.10
2019-03-26T17:43:45.562Z,10.83
2019-03-26T17:46:33.778Z,6.63
2019-03-26T17:49:23.135Z,10.37
2019-03-26T17:52:12.027Z,12.20
2019-03-26T17:54:59.722Z,8.53
2019-03-26T17:57:48.811Z,13.13
2019-03-26T18:00:42.859Z,8.27
2019-03-26T18:03:32.346Z,7.50
2019-03-26T18:06:21.356Z,9.50
2019-03-26T18:09:10.876Z,12.40
2019-03-26T18:12:00.634Z,9.27
2019-03-26T18:14:49.163Z,11.13
2019-03-26T18:17:37.954Z,7.07
2019-03-26T18:20:32.391Z,8.43
2019-03-26T18:23:20.282Z,7.67
2019-03-26T18:26:20.626Z,7.80
2019-03-26T18:29:11.047Z,15.47
2019-03-26T18:31:59.970Z,7.60
2019-03-26T18:34:48.517Z,7.23
2019-03-26T18:37:37.334Z,7.20
2019-03-26T18:40:26.073Z,10.30
2019-03-26T18:43:14.786Z,9.60
2019-03-26T18:46:04.494Z,6.13
2019-03-26T18:48:53.530Z,7.77
2019-03-26T18:51:42.809Z,8.57
2019-03-26T18:54:31.910Z,15.03
2019-03-26T18:57:21.051Z,6.03
2019-03-26T19:00:07.677Z,7.67
2019-03-26T19:02:56.678Z,8.40
2019-03-26T19:05:45.402Z,12.03
2019-03-26T19:08:34.399Z,9.80
2019-03-26T19:14:15.710Z,6.67
2019-03-26T19:17:04.322Z,7.07
2019-03-26T19:19:52.842Z,6.57
2019-03-26T19:22:41.292Z,11.90
2019-03-26T19:25:29.735Z,5.70
2019-03-26T19:28:18.765Z,8.97
2019-03-26T19:31:07.435Z,4.80
2019-03-26T19:33:56.338Z,10.60
2019-03-26T19:36:44.923Z,10.13
2019-03-26T19:39:33.578Z,6.73
2019-03-26T19:42:22.827Z,8.70
2019-03-26T19:45:11.821Z,9.00
2019-03-26T19:48:00.139Z,10.27
2019-03-26T19:50:49.650Z,7.57
2019-03-26T19:53:39.249Z,8.93
2019-03-26T19:56:28.781Z,8.57
2019-03-26T19:59:17.775Z,11.60
2019-03-26T20:02:07.108Z,9.30
2019-03-26T20:04:56.405Z,8.57
2019-03-26T20:07:45.151Z,10.30
2019-03-26T20:10:34.110Z,10.00
2019-03-26T20:13:26.658Z,8.10
2019-03-26T20:16:15.024Z,6.90
2019-03-26T20:19:04.140Z,12.93
2019-03-26T20:21:56.371Z,8.47
2019-03-26T20:24:45.595Z,8.20
2019-03-26T20:27:34.447Z,15.73
2019-03-26T20:30:23.379Z,10.40
2019-03-26T20:33:21.551Z,14.50
2019-03-26T20:36:10.176Z,11.27
2019-03-26T20:38:59.338Z,8.47
2019-03-26T20:41:48.615Z,14.73
2019-03-26T20:44:37.607Z,15.00
2019-03-26T20:47:26.018Z,9.80
2019-03-26T20:50:15.921Z,16.27
2019-03-26T20:53:05.000Z,14.20
2019-03-26T20:55:54.775Z,14.10
2019-03-26T20:58:44.394Z,19.63
2019-03-26T21:01:34.078Z,14.63
2019-03-26T21:07:10.553Z,14.57
2019-03-26T21:09:59.254Z,15.70
2019-03-26T21:12:48.583Z,20.43
2019-03-26T21:15:37.634Z,13.63
2019-03-26T21:18:26.999Z,11.70
2019-03-26T21:21:15.967Z,20.00
2019-03-26T21:24:05.401Z,16.97
2019-03-26T21:26:54.005Z,14.27
2019-03-26T21:29:42.396Z,18.07
2019-03-26T21:32:30.982Z,13.67
2019-03-26T21:35:19.759Z,17.03
2019-03-26T21:38:09.310Z,13.80
2019-03-26T21:40:58.114Z,17.00
2019-03-26T21:43:46.727Z,16.03
2019-03-26T21:46:35.649Z,16.90
2019-03-26T21:49:26.999Z,16.63
2019-03-26T21:52:15.798Z,15.27
2019-03-26T21:55:05.933Z,13.50
2019-03-26T21:57:54.575Z,17.83
2019-03-26T22:00:44.467Z,18.80
2019-03-26T22:03:33.550Z,17.13
2019-03-26T22:06:21.846Z,15.40
2019-03-26T22:09:10.852Z,14.50
2019-03-26T22:11:59.595Z,15.93
2019-03-26T22:14:48.264Z,18.20
2019-03-26T22:17:36.742Z,16.57
2019-03-26T22:20:25.457Z,17.27
2019-03-26T22:23:14.522Z,14.47
2019-03-26T22:26:03.837Z,14.23
2019-03-26T22:29:00.510Z,16.87
2019-03-26T22:31:49.362Z,13.87
2019-03-26T22:34:38.266Z,17.43
2019-03-26T22:37:30.174Z,17.30
2019-03-26T22:40:19.449Z,21.83
2019-03-26T22:43:08.515Z,18.77
2019-03-26T22:45:57.214Z,18.47
2019-03-26T22:48:45.618Z,18.43
2019-03-26T22:51:33.834Z,11.80
2019-03-26T22:54:22.213Z,22.23
2019-03-26T22:57:10.631Z,16.57
2019-03-26T22:59:59.080Z,14.30
2019-03-26T23:02:47.941Z,18.87
2019-03-26T23:05:36.914Z,15.70
2019-03-26T23:08:26.372Z,22.13
2019-03-26T23:11:15.011Z,20.50
2019-03-26T23:14:03.451Z,15.33
2019-03-26T23:16:52.062Z,21.23
2019-03-26T23:19:41.070Z,20.10
2019-03-26T23:22:30.533Z,17.03
2019-03-26T23:25:19.159Z,19.50
2019-03-26T23:28:07.944Z,19.63
2019-03-26T23:30:56.223Z,17.90
2019-03-26T23:33:45.781Z,17.53
2019-03-26T23:36:34.783Z,18.57
2019-03-26T23:39:23.818Z,22.43
2019-03-26T23:42:12.879Z,23.03
2019-03-26T23:45:02.018Z,20.00
2019-03-26T23:47:50.411Z,21.93
2019-03-26T23:50:38.739Z,18.73
2019-03-26T23:53:27.837Z,27.60
2019-03-26T23:56:16.851Z,23.07
2019-03-26T23:59:05.546Z,18.63
